Time;durP1;ratioP1;P1;durP2;ratioP2;P2;SDS_P1;SDS_P2;PMS_P1;PMS_P2;Temp;Humidity;BMP_temperature;BMP_pressure;BME280_temperature;BME280_humidity;BME280_pressure;Samples;Min_cycle;Max_cycle;Signal;HPM_P1;HPM_P2
2023/05/17 00:01:16;;;;;;;0.30;0.30;;;;;;;10.59;62.88;99575.28;5129219;28;20391;-67
2023/05/17 00:03:41;;;;;;;0.30;0.30;;;;;;;10.59;61.98;99577.06;5129081;28;20390;-66
2023/05/17 00:06:07;;;;;;;0.30;0.30;;;;;;;10.53;61.30;99581.50;5110685;28;20495;-67
2023/05/17 00:08:32;;;;;;;0.30;0.30;;;;;;;10.49;61.08;99598.03;5110505;28;20063;-68
2023/05/17 00:10:58;;;;;;;0.30;0.30;;;;;;;10.48;60.97;99590.28;5128969;28;20031;-68
2023/05/17 00:13:23;;;;;;;0.30;0.30;;;;;;;10.44;59.81;99585.97;5128912;28;20039;-67
2023/05/17 00:15:48;;;;;;;0.30;0.30;;;;;;;10.39;59.44;99599.06;5128796;28;20028;-67
2023/05/17 00:18:14;;;;;;;0.40;0.40;;;;;;;10.36;58.42;99602.56;5128857;28;20037;-68
2023/05/17 00:20:39;;;;;;;0.30;0.30;;;;;;;10.29;57.77;99599.25;5128867;28;20059;-68
2023/05/17 00:23:05;;;;;;;0.30;0.30;;;;;;;10.29;57.79;99601.84;5129076;28;20039;-68
2023/05/17 00:25:30;;;;;;;0.30;0.30;;;;;;;10.28;56.86;99613.13;5128599;28;20055;-67
2023/05/17 00:27:55;;;;;;;0.43;0.43;;;;;;;10.26;55.89;99608.81;5128594;28;20163;-67
2023/05/17 00:30:21;;;;;;;0.30;0.30;;;;;;;10.17;56.14;99618.47;5128486;28;20035;-67
2023/05/17 00:32:47;;;;;;;0.50;0.50;;;;;;;10.12;55.80;99617.75;5128696;28;20075;-68
2023/05/17 00:35:13;;;;;;;0.40;0.40;;;;;;;10.11;55.97;99626.38;5109900;28;20032;-67
2023/05/17 00:37:38;;;;;;;0.35;0.35;;;;;;;10.09;56.13;99628.19;5128482;28;20491;-67
2023/05/17 00:40:05;;;;;;;0.30;0.30;;;;;;;10.04;55.73;99627.41;5128529;28;20088;-68
2023/05/17 00:42:30;;;;;;;0.30;0.30;;;;;;;9.89;55.70;99644.94;5128510;28;20425;-68
2023/05/17 00:44:56;;;;;;;0.65;0.65;;;;;;;9.84;55.86;99636.38;5128372;28;20024;-67
2023/05/17 00:47:21;;;;;;;0.30;0.30;;;;;;;9.75;56.13;99641.75;5128377;28;20257;-68
2023/05/17 00:49:47;;;;;;;0.30;0.30;;;;;;;9.72;55.29;99646.97;5110001;28;20508;-69
2023/05/17 00:52:12;;;;;;;0.30;0.30;;;;;;;9.75;54.87;99658.16;5128225;28;20035;-67
2023/05/17 00:54:39;;;;;;;0.30;0.30;;;;;;;9.63;55.10;99654.03;5128313;28;20015;-66
2023/05/17 00:57:05;;;;;;;0.38;0.38;;;;;;;9.58;54.46;99650.66;5128080;28;20019;-67
2023/05/17 00:59:31;;;;;;;0.30;0.30;;;;;;;9.58;54.23;99660.19;5128163;28;20030;-68
2023/05/17 01:01:57;;;;;;;0.30;0.30;;;;;;;9.54;53.98;99649.00;5128195;28;20020;-67
2023/05/17 01:04:23;;;;;;;0.30;0.30;;;;;;;9.50;53.31;99671.53;5127667;28;20020;-67
2023/05/17 01:06:49;;;;;;;0.30;0.30;;;;;;;9.40;53.31;99668.22;5109635;28;20023;-68
2023/05/17 01:09:16;;;;;;;0.30;0.30;;;;;;;9.42;52.95;99668.19;5126824;28;20042;-68
2023/05/17 01:11:59;;;;;;;0.30;0.30;;;;;;;9.35;53.19;99663.97;5127386;28;20053;-67
2023/05/17 01:14:43;;;;;;;0.40;0.40;;;;;;;9.35;52.57;99685.56;5127776;28;20023;-68
2023/05/17 01:17:17;;;;;;;0.35;0.35;;;;;;;9.19;52.80;99684.94;5127825;28;20019;-68
2023/05/17 01:20:09;;;;;;;4.45;4.00;;;;;;;9.20;52.85;99686.63;5127603;28;20028;-68
2023/05/17 01:22:40;;;;;;;;;;;;;;;9.24;52.84;99697.81;5128060;28;20023;-68
2023/05/17 01:25:17;;;;;;;0.30;0.30;;;;;;;9.23;53.05;99709.94;5127675;28;20378;-69
2023/05/17 01:27:44;;;;;;;0.40;0.40;;;;;;;9.15;53.65;99710.00;5109144;28;20035;-68
2023/05/17 01:30:13;;;;;;;0.40;0.40;;;;;;;9.04;54.60;99701.56;5127594;28;20023;-67
2023/05/17 01:32:42;;;;;;;0.40;0.40;;;;;;;8.92;55.06;99712.91;5109112;28;20023;-67
2023/05/17 01:35:09;;;;;;;0.30;0.30;;;;;;;8.86;55.43;99716.44;5127237;28;20030;-68
2023/05/17 01:37:35;;;;;;;0.40;0.40;;;;;;;8.84;55.55;99715.59;5109060;28;20012;-69
2023/05/17 01:40:00;;;;;;;0.40;0.40;;;;;;;8.83;55.62;99715.63;5109596;28;20026;-68
2023/05/17 01:42:31;;;;;;;0.32;0.32;;;;;;;8.83;55.74;99718.22;5127275;28;20024;-68
2023/05/17 01:45:21;;;;;;;0.30;0.30;;;;;;;8.83;55.31;99718.22;5108756;28;20026;-68
2023/05/17 01:47:57;;;;;;;0.30;0.30;;;;;;;8.80;55.60;99721.69;5127214;28;20011;-67
2023/05/17 01:50:25;;;;;;;0.32;0.32;;;;;;;8.75;55.65;99711.41;5126938;28;20586;-69
2023/05/17 01:53:01;;;;;;;0.40;0.40;;;;;;;8.70;55.38;99718.34;5127292;28;20030;-69
2023/05/17 01:55:39;;;;;;;0.40;0.40;;;;;;;8.63;55.27;99724.47;5108647;28;20031;-68
2023/05/17 01:58:07;;;;;;;0.30;0.30;;;;;;;8.58;55.47;99736.63;5126923;28;20012;-68
2023/05/17 02:00:33;;;;;;;0.30;0.30;;;;;;;8.50;55.33;99734.91;5108756;28;20061;-68
2023/05/17 02:02:58;;;;;;;0.40;0.40;;;;;;;8.41;55.33;99735.88;5126979;28;20033;-68
2023/05/17 02:05:24;;;;;;;0.30;0.30;;;;;;;8.34;55.57;99731.63;5126419;28;20051;-68
2023/05/17 02:07:49;;;;;;;0.40;0.40;;;;;;;8.28;55.45;99731.69;5126601;28;20024;-69
2023/05/17 02:10:15;;;;;;;0.40;0.40;;;;;;;8.25;55.72;99742.06;5126729;28;20026;-68
2023/05/17 02:12:40;;;;;;;0.40;0.40;;;;;;;8.17;55.77;99752.50;5126793;28;20042;-68
2023/05/17 02:15:08;;;;;;;0.40;0.40;;;;;;;8.11;55.60;99732.72;5126651;28;20499;-68
2023/05/17 02:17:33;;;;;;;0.40;0.40;;;;;;;8.09;55.75;99739.63;5108151;28;20020;-68
2023/05/17 02:19:59;;;;;;;0.30;0.30;;;;;;;8.03;56.06;99731.94;5107991;28;20046;-68
2023/05/17 02:22:24;;;;;;;0.40;0.40;;;;;;;8.01;55.93;99738.84;5126065;28;20047;-68
2023/05/17 02:24:49;;;;;;;0.40;0.40;;;;;;;7.94;56.13;99741.47;5126424;28;20023;-68
2023/05/17 02:27:15;;;;;;;0.40;0.40;;;;;;;7.93;56.23;99744.94;5107958;28;20019;-68
2023/05/17 02:29:41;;;;;;;0.40;0.40;;;;;;;7.87;56.51;99751.88;5126502;28;20019;-68
2023/05/17 02:32:06;;;;;;;0.38;0.38;;;;;;;7.91;56.51;99744.09;5126424;28;20104;-68
2023/05/17 02:34:32;;;;;;;0.40;0.40;;;;;;;7.83;56.80;99743.28;5107723;28;20023;-67
2023/05/17 02:36:57;;;;;;;0.40;0.40;;;;;;;7.80;56.97;99753.66;5107755;28;20025;-68
2023/05/17 02:39:23;;;;;;;0.40;0.40;;;;;;;7.77;57.09;99745.91;5126104;28;20027;-67
2023/05/17 02:41:48;;;;;;;0.40;0.40;;;;;;;7.76;57.03;99750.25;5126171;28;20156;-68
2023/05/17 02:44:13;;;;;;;0.40;0.40;;;;;;;7.74;57.37;99740.78;5125943;28;20034;-68
2023/05/17 02:46:39;;;;;;;0.40;0.40;;;;;;;7.68;57.60;99745.13;5125672;28;20015;-68
2023/05/17 02:49:04;;;;;;;0.40;0.40;;;;;;;7.73;57.69;99749.41;5125654;28;20045;-68
2023/05/17 02:51:30;;;;;;;0.40;0.40;;;;;;;7.71;57.87;99754.59;5125973;28;20031;-68
2023/05/17 02:53:55;;;;;;;0.40;0.40;;;;;;;7.68;58.13;99758.03;5107699;28;20027;-67
2023/05/17 02:56:21;;;;;;;1.52;1.50;;;;;;;7.69;58.12;99754.59;5125727;28;20030;-69
2023/05/17 02:58:46;;;;;;;0.40;0.40;;;;;;;7.67;58.22;99753.75;5126017;28;20397;-68
2023/05/17 03:01:12;;;;;;;0.40;0.40;;;;;;;7.69;58.29;99764.06;5125883;28;20364;-68
2023/05/17 03:03:37;;;;;;;0.40;0.40;;;;;;;7.69;58.41;99769.22;5125938;28;20023;-68
2023/05/17 03:06:03;;;;;;;0.40;0.40;;;;;;;7.73;58.58;99772.66;5125705;28;20027;-68
2023/05/17 03:08:30;;;;;;;0.40;0.40;;;;;;;7.75;58.84;99776.06;5125614;28;20031;-67
2023/05/17 03:10:55;;;;;;;0.40;0.40;;;;;;;7.73;59.00;99775.25;5125790;28;20030;-68
2023/05/17 03:13:21;;;;;;;0.40;0.40;;;;;;;7.82;59.04;99785.50;5107316;28;20024;-68
2023/05/17 03:15:46;;;;;;;0.40;0.40;;;;;;;7.87;59.11;99783.75;5107145;28;20030;-68
2023/05/17 03:18:11;;;;;;;0.40;0.40;;;;;;;7.96;59.16;99787.13;5125396;28;20023;-68
2023/05/17 03:20:37;;;;;;;0.40;0.40;;;;;;;7.99;59.14;99781.94;5125473;28;20028;-69
2023/05/17 03:23:02;;;;;;;0.30;0.30;;;;;;;8.04;59.55;99780.19;5125606;28;20031;-68
2023/05/17 03:25:27;;;;;;;0.40;0.40;;;;;;;8.12;59.43;99788.72;5125587;28;20030;-67
2023/05/17 03:27:53;;;;;;;0.40;0.40;;;;;;;8.19;59.67;99787.78;5107228;28;20079;-67
2023/05/17 03:30:18;;;;;;;0.40;0.40;;;;;;;8.23;59.64;99785.19;5125606;28;20011;-67
2023/05/17 03:32:44;;;;;;;0.40;0.40;;;;;;;8.29;59.67;99798.09;5125795;28;20049;-68
2023/05/17 03:35:10;;;;;;;0.40;0.40;;;;;;;8.37;59.73;99798.84;5129318;28;20035;-68
2023/05/17 03:37:36;;;;;;;0.40;0.40;;;;;;;8.37;59.85;99798.00;5129461;28;20020;-67
2023/05/17 03:40:01;;;;;;;0.40;0.40;;;;;;;8.41;60.00;99800.56;5110973;28;20030;-67
2023/05/17 03:42:27;;;;;;;0.30;0.30;;;;;;;8.53;60.03;99798.72;5111158;28;20079;-69
2023/05/17 03:44:53;;;;;;;0.40;0.40;;;;;;;8.62;59.85;99800.38;5129491;28;20023;-68
2023/05/17 03:47:18;;;;;;;0.40;0.40;;;;;;;8.67;60.18;99804.63;5129501;28;20024;-67
2023/05/17 03:49:43;;;;;;;0.40;0.40;;;;;;;8.73;60.16;99803.72;5129311;28;20027;-67
2023/05/17 03:52:09;;;;;;;0.40;0.40;;;;;;;8.88;60.23;99809.63;5129548;28;20023;-68
2023/05/17 03:54:34;;;;;;;0.38;0.38;;;;;;;9.01;60.35;99818.94;5129267;28;20072;-67
2023/05/17 03:57:00;;;;;;;0.40;0.40;;;;;;;9.22;60.60;99804.03;5129307;28;20487;-67
2023/05/17 03:59:25;;;;;;;0.32;0.32;;;;;;;9.44;60.44;99805.50;5129265;28;20106;-68
2023/05/17 04:01:50;;;;;;;0.30;0.30;;;;;;;9.53;59.98;99818.31;5129211;28;20435;-67
2023/05/17 04:04:16;;;;;;;0.30;0.30;;;;;;;9.46;59.40;99821.84;5128813;28;20550;-68
2023/05/17 04:06:41;;;;;;;0.30;0.30;;;;;;;9.35;59.12;99822.84;5129179;28;20083;-68
2023/05/17 04:09:09;;;;;;;0.30;0.30;;;;;;;9.35;59.06;99828.03;5128931;28;20044;-67
2023/05/17 04:11:35;;;;;;;0.30;0.30;;;;;;;9.56;59.26;99841.59;5129001;28;20032;-67
2023/05/17 04:14:00;;;;;;;0.30;0.30;;;;;;;9.66;58.70;99838.00;5129068;28;20061;-68
2023/05/17 04:16:25;;;;;;;0.40;0.40;;;;;;;9.70;58.78;99858.69;5128796;28;20020;-68
2023/05/17 04:18:52;;;;;;;0.30;0.30;;;;;;;9.67;58.76;99857.88;5110605;28;20028;-67
2023/05/17 04:21:18;;;;;;;0.30;0.30;;;;;;;9.52;58.45;99852.88;5128950;28;20027;-68
2023/05/17 04:23:43;;;;;;;0.40;0.40;;;;;;;9.44;58.48;99870.25;5128840;28;20038;-67
2023/05/17 04:26:09;;;;;;;0.30;0.30;;;;;;;9.37;58.57;99866.88;5128613;28;20019;-68
2023/05/17 04:28:34;;;;;;;0.40;0.40;;;;;;;9.23;58.56;99885.19;5128706;28;20026;-68
2023/05/17 04:31:00;;;;;;;0.30;0.30;;;;;;;9.16;58.66;99890.44;5110140;28;20020;-68
2023/05/17 04:33:26;;;;;;;0.30;0.30;;;;;;;9.04;58.86;99887.97;5128558;28;20499;-67
2023/05/17 04:35:54;;;;;;;0.35;0.35;;;;;;;9.01;59.20;99899.22;5128469;28;20025;-67
2023/05/17 04:38:19;;;;;;;0.30;0.30;;;;;;;9.01;59.15;99901.78;5128708;28;20045;-67
2023/05/17 04:40:44;;;;;;;0.30;0.30;;;;;;;9.03;58.87;99912.13;5128365;28;20091;-67
2023/05/17 04:43:10;;;;;;;0.32;0.32;;;;;;;8.91;59.11;99913.97;5128550;28;20394;-67
2023/05/17 04:45:36;;;;;;;0.40;0.40;;;;;;;8.73;59.17;99915.00;5109612;28;20074;-67
2023/05/17 04:48:02;;;;;;;0.30;0.30;;;;;;;8.55;59.66;99936.72;5128377;28;20018;-65
2023/05/17 04:50:27;;;;;;;0.30;0.30;;;;;;;8.41;59.85;99940.25;5128131;28;20079;-67
2023/05/17 04:52:53;;;;;;;0.30;0.30;;;;;;;8.29;59.99;99929.97;5128248;28;20086;-67
2023/05/17 04:55:20;;;;;;;0.40;0.40;;;;;;;8.02;60.21;99965.47;5127898;28;20055;-73
2023/05/17 04:57:45;;;;;;;0.38;0.38;;;;;;;7.75;60.76;99959.53;5109746;28;20027;-65
2023/05/17 05:00:12;;;;;;;0.40;0.40;;;;;;;7.67;61.05;99969.91;5128021;28;20079;-64
2023/05/17 05:02:38;;;;;;;0.30;0.30;;;;;;;7.59;60.91;99972.50;5127895;28;20035;-65
2023/05/17 05:05:03;;;;;;;0.40;0.40;;;;;;;7.57;60.90;99988.03;5127793;28;20024;-64
2023/05/17 05:07:30;;;;;;;0.40;0.40;;;;;;;7.66;61.31;99970.78;5127766;28;20027;-66
2023/05/17 05:09:55;;;;;;;0.40;0.40;;;;;;;8.14;61.43;100003.31;5127653;28;20078;-67
2023/05/17 05:12:21;;;;;;;0.30;0.30;;;;;;;8.31;60.42;100001.50;5127844;28;20039;-66
2023/05/17 05:14:47;;;;;;;0.40;0.40;;;;;;;8.21;59.69;100019.69;5127441;28;20053;-65
2023/05/17 05:17:12;;;;;;;0.30;0.30;;;;;;;8.01;60.00;100030.94;5127494;28;20053;-66
2023/05/17 05:19:37;;;;;;;0.40;0.40;;;;;;;7.79;60.03;100023.28;5127417;28;20164;-65
2023/05/17 05:22:03;;;;;;;0.40;0.40;;;;;;;7.54;60.64;100049.19;5127549;28;20030;-66
2023/05/17 05:24:28;;;;;;;0.38;0.38;;;;;;;7.36;61.07;100045.78;5127582;28;20015;-65
2023/05/17 05:26:54;;;;;;;0.30;0.30;;;;;;;7.32;61.52;100029.41;5127268;28;20019;-65
2023/05/17 05:29:20;;;;;;;0.30;0.30;;;;;;;6.92;62.67;100024.25;5127306;28;20404;-64
2023/05/17 05:31:45;;;;;;;0.40;0.40;;;;;;;6.92;63.61;100071.56;5108985;28;20023;-66
2023/05/17 05:34:11;;;;;;;0.40;0.40;;;;;;;7.07;63.68;100068.16;5127323;28;20149;-66
2023/05/17 05:36:36;;;;;;;0.40;0.40;;;;;;;7.16;63.52;100077.59;5126966;28;20490;-66
2023/05/17 05:39:02;;;;;;;0.40;0.40;;;;;;;7.27;63.09;100084.47;5108957;28;20038;-66
2023/05/17 05:41:27;;;;;;;0.40;0.40;;;;;;;7.41;62.79;100089.66;5127221;28;20483;-66
2023/05/17 05:43:53;;;;;;;0.40;0.40;;;;;;;7.47;62.36;100094.81;5108912;28;20026;-67
2023/05/17 05:46:18;;;;;;;0.40;0.40;;;;;;;7.50;62.03;100096.53;5126970;28;20028;-66
2023/05/17 05:48:44;;;;;;;0.40;0.40;;;;;;;7.45;61.80;100106.88;5127003;28;20031;-66
2023/05/17 05:51:09;;;;;;;0.30;0.30;;;;;;;7.32;61.74;100117.22;5126928;28;20087;-65
2023/05/17 05:53:35;;;;;;;0.40;0.40;;;;;;;7.13;62.18;100139.56;5108756;28;20356;-65
2023/05/17 05:56:01;;;;;;;0.35;0.35;;;;;;;7.11;62.63;100140.44;5108169;28;20019;-66
2023/05/17 05:58:28;;;;;;;0.40;0.40;;;;;;;7.12;62.76;100145.59;5126817;28;20049;-66
2023/05/17 06:00:53;;;;;;;0.40;0.40;;;;;;;7.05;62.71;100157.63;5126947;28;20066;-66
2023/05/17 06:03:19;;;;;;;0.30;0.30;;;;;;;6.96;63.14;100167.06;5126831;28;20016;-66
2023/05/17 06:05:44;;;;;;;0.40;0.40;;;;;;;6.81;63.57;100176.47;5126651;28;20019;-66
2023/05/17 06:08:10;;;;;;;0.40;0.40;;;;;;;6.68;63.98;100175.56;5126801;28;20063;-66
2023/05/17 06:10:35;;;;;;;0.35;0.35;;;;;;;6.66;64.56;100177.31;5126836;28;20027;-65
2023/05/17 06:13:00;;;;;;;0.40;0.40;;;;;;;6.64;64.45;100179.88;5126705;28;20020;-64
2023/05/17 06:15:26;;;;;;;0.40;0.40;;;;;;;6.65;64.51;100191.91;5126701;28;20079;-66
2023/05/17 06:17:52;;;;;;;0.40;0.40;;;;;;;6.66;64.73;100193.63;5126520;28;20031;-66
2023/05/17 06:20:17;;;;;;;0.40;0.40;;;;;;;6.72;64.36;100212.56;5126392;28;20023;-65
2023/05/17 06:22:43;;;;;;;0.30;0.30;;;;;;;6.62;64.17;100209.06;5108145;28;20092;-65
2023/05/17 06:25:10;;;;;;;0.40;0.40;;;;;;;6.49;64.13;100227.06;5126266;28;20019;-66
2023/05/17 06:27:35;;;;;;;0.40;0.40;;;;;;;6.32;63.43;100235.59;5126489;28;20405;-65
2023/05/17 06:30:01;;;;;;;0.40;0.40;;;;;;;6.18;63.63;100255.25;5126532;28;20030;-65
2023/05/17 06:32:27;;;;;;;0.40;0.40;;;;;;;5.97;64.00;100272.25;5108114;28;20026;-65
2023/05/17 06:34:55;;;;;;;0.40;0.40;;;;;;;5.83;64.16;100257.50;5126178;28;20039;-64
2023/05/17 06:37:20;;;;;;;0.40;0.40;;;;;;;5.71;64.85;100283.16;5126064;28;20024;-65
2023/05/17 06:39:46;;;;;;;0.35;0.35;;;;;;;5.67;65.21;100265.97;5126431;28;20019;-65
2023/05/17 06:42:11;;;;;;;0.40;0.40;;;;;;;5.51;65.89;100282.97;5126207;28;20028;-65
2023/05/17 06:44:37;;;;;;;0.40;0.40;;;;;;;5.42;66.41;100270.84;5126088;28;20023;-65
2023/05/17 06:47:02;;;;;;;0.40;0.40;;;;;;;5.36;66.52;100289.69;5107591;28;20016;-66
2023/05/17 06:49:28;;;;;;;0.40;0.40;;;;;;;5.32;66.87;100299.06;5125827;28;20031;-66
2023/05/17 06:51:54;;;;;;;0.40;0.40;;;;;;;5.26;67.21;100318.72;5126231;28;20030;-66
2023/05/17 06:54:19;;;;;;;0.40;0.40;;;;;;;5.21;67.06;100303.22;5126096;28;20066;-64
2023/05/17 06:56:45;;;;;;;0.40;0.40;;;;;;;5.27;67.19;100318.75;5125732;28;20087;-65
2023/05/17 06:59:10;;;;;;;0.40;0.40;;;;;;;5.31;67.23;100323.09;5126032;28;20083;-65
2023/05/17 07:01:36;;;;;;;0.40;0.40;;;;;;;5.48;67.85;100327.56;5125947;28;20079;-66
2023/05/17 07:04:01;;;;;;;0.40;0.40;;;;;;;5.70;67.33;100317.50;5125925;28;20027;-65
2023/05/17 07:06:27;;;;;;;0.40;0.40;;;;;;;5.92;66.95;100335.75;5107298;28;20072;-66
2023/05/17 07:08:53;;;;;;;0.40;0.40;;;;;;;5.86;66.75;100339.16;5124560;28;20065;-65
2023/05/17 07:11:18;;;;;;;0.40;0.40;;;;;;;5.89;66.98;100344.34;5128892;22;20093;-63
2023/05/17 07:13:44;;;;;;;0.40;0.40;;;;;;;5.90;66.63;100348.63;5134931;22;20073;-65
2023/05/17 07:16:09;;;;;;;0.40;0.40;;;;;;;5.86;66.63;100348.59;5125772;28;20032;-65
2023/05/17 07:18:35;;;;;;;0.40;0.40;;;;;;;5.89;66.81;100351.19;5125683;28;20129;-65
2023/05/17 07:21:00;;;;;;;0.40;0.40;;;;;;;5.93;66.70;100356.38;5125482;28;20433;-65
2023/05/17 07:23:26;;;;;;;0.40;0.40;;;;;;;5.89;67.31;100369.22;5125805;28;20030;-65
2023/05/17 07:25:51;;;;;;;0.40;0.40;;;;;;;5.83;67.38;100373.47;5125544;28;20034;-64
2023/05/17 07:28:16;;;;;;;0.40;0.40;;;;;;;5.81;67.40;100379.44;5107474;28;20020;-64
2023/05/17 07:30:42;;;;;;;0.40;0.40;;;;;;;5.72;67.65;100381.94;5125537;28;20027;-65
2023/05/17 07:33:07;;;;;;;0.40;0.40;;;;;;;5.57;68.09;100393.78;5125570;28;20024;-65
2023/05/17 07:35:33;;;;;;;0.40;0.40;;;;;;;5.51;68.24;100394.56;5129423;22;20115;-61
2023/05/17 07:37:58;;;;;;;0.40;0.40;;;;;;;5.64;68.97;100411.03;5113235;22;20059;-65
2023/05/17 07:43:05;;;;;;;0.40;0.40;;;;;;;5.87;68.79;100417.28;5124563;22;20434;-61
2023/05/17 07:45:30;;;;;;;0.40;0.40;;;;;;;5.99;68.95;100419.16;5077474;23;20062;-66
2023/05/17 07:47:56;;;;;;;0.40;0.40;;;;;;;6.17;68.89;100429.69;5064615;28;20017;-65
2023/05/17 07:50:22;;;;;;;0.40;0.40;;;;;;;6.40;69.03;100423.88;5064339;28;20017;-65
2023/05/17 07:52:47;;;;;;;0.40;0.40;;;;;;;6.57;68.57;100424.03;5064615;28;20051;-65
2023/05/17 07:55:12;;;;;;;0.40;0.40;;;;;;;6.78;68.23;100439.66;5063325;28;20032;-65
2023/05/17 07:57:38;;;;;;;0.40;0.40;;;;;;;6.86;67.61;100431.97;5064509;28;20131;-65
2023/05/17 08:00:05;;;;;;;0.40;0.40;;;;;;;6.93;67.89;100438.94;5064684;28;20090;-66
2023/05/17 08:02:30;;;;;;;0.40;0.40;;;;;;;7.07;67.36;100446.75;5064676;28;20025;-66
2023/05/17 08:04:55;;;;;;;0.40;0.40;;;;;;;7.13;67.24;100454.53;5064283;28;20028;-65
2023/05/17 08:07:21;;;;;;;0.40;0.40;;;;;;;7.25;67.18;100450.31;5064426;28;20024;-66
2023/05/17 08:09:46;;;;;;;0.40;0.40;;;;;;;7.18;66.13;100462.31;5064515;28;20029;-65
2023/05/17 08:12:12;;;;;;;0.40;0.40;;;;;;;7.12;65.97;100472.59;5097753;22;20100;-62
2023/05/17 08:14:38;;;;;;;0.40;0.40;;;;;;;7.07;66.05;100486.34;5125401;28;20081;-63
2023/05/17 08:17:04;;;;;;;0.40;0.40;;;;;;;7.03;65.50;100500.06;5125128;28;20028;-62
2023/05/17 08:19:29;;;;;;;0.40;0.40;;;;;;;6.94;64.63;100498.31;5126138;28;20050;-61
2023/05/17 08:21:55;;;;;;;0.40;0.40;;;;;;;6.89;64.03;100494.81;5129020;28;20024;-61
2023/05/17 08:24:21;;;;;;;0.40;0.40;;;;;;;6.77;62.94;100484.41;5128861;28;20433;-61
2023/05/17 08:26:46;;;;;;;0.40;0.40;;;;;;;6.69;62.38;100515.28;5128938;28;20035;-62
2023/05/17 08:29:12;;;;;;;0.40;0.40;;;;;;;6.65;62.22;100522.13;5128895;28;20054;-61
2023/05/17 08:31:37;;;;;;;0.40;0.40;;;;;;;6.62;62.01;100531.53;5128673;28;20037;-62
2023/05/17 08:34:03;;;;;;;0.40;0.40;;;;;;;6.65;61.70;100518.66;5128719;28;20055;-61
2023/05/17 08:36:28;;;;;;;0.40;0.40;;;;;;;6.59;62.33;100541.84;5128533;28;20106;-62
2023/05/17 08:38:53;;;;;;;0.40;0.40;;;;;;;6.66;61.61;100529.00;5128927;28;20023;-63
2023/05/17 08:41:19;;;;;;;0.40;0.40;;;;;;;6.67;61.39;100546.25;5128536;28;20023;-62
2023/05/17 08:43:47;;;;;;;0.50;0.50;;;;;;;6.77;61.34;100546.31;5128900;28;20023;-62
2023/05/17 08:46:14;;;;;;;0.40;0.40;;;;;;;6.88;61.55;100559.31;5128510;28;20031;-63
2023/05/17 08:48:42;;;;;;;0.40;0.40;;;;;;;6.92;60.90;100524.94;5110257;28;20031;-64
2023/05/17 08:51:10;;;;;;;0.40;0.40;;;;;;;7.02;59.47;100551.69;5120435;22;20063;-63
2023/05/17 08:53:36;;;;;;;0.40;0.40;;;;;;;7.17;60.27;100554.41;5128381;28;20016;-63
2023/05/17 08:56:04;;;;;;;0.40;0.40;;;;;;;7.49;60.75;100546.91;5133562;22;20050;-67
2023/05/17 08:58:38;;;;;;;0.40;0.40;;;;;;;7.78;59.32;100559.97;5109901;28;20049;-67
2023/05/17 09:01:06;;;;;;;0.40;0.40;;;;;;;7.99;58.79;100563.53;5110101;28;20062;-66
2023/05/17 09:03:34;;;;;;;0.40;0.40;;;;;;;8.27;59.10;100552.44;5128147;28;20096;-66
2023/05/17 09:05:59;;;;;;;0.40;0.40;;;;;;;8.64;59.70;100562.91;5127708;28;20110;-66
2023/05/17 09:08:26;;;;;;;0.40;0.40;;;;;;;9.15;59.90;100563.84;5128061;28;20051;-66
2023/05/17 09:10:53;;;;;;;0.40;0.40;;;;;;;9.60;59.49;100575.91;5128278;28;20182;-66
2023/05/17 09:13:18;;;;;;;0.40;0.40;;;;;;;9.94;59.46;100569.75;5109673;28;20031;-65
2023/05/17 09:15:46;;;;;;;0.40;0.40;;;;;;;10.26;58.66;100571.38;5127617;28;20016;-66
2023/05/17 09:18:12;;;;;;;0.30;0.30;;;;;;;10.54;58.71;100568.69;5128036;28;20112;-67
2023/05/17 09:20:38;;;;;;;0.40;0.40;;;;;;;10.83;57.00;100578.00;5111129;22;20079;-63
2023/05/17 09:23:09;;;;;;;0.35;0.35;;;;;;;10.95;56.33;100577.06;5107610;28;20039;-64
2023/05/17 09:25:35;;;;;;;0.30;0.30;;;;;;;11.22;56.20;100579.47;5106158;28;20031;-63
2023/05/17 09:28:03;;;;;;;0.30;0.30;;;;;;;11.26;56.65;100576.81;5107467;28;20020;-63
2023/05/17 09:30:30;;;;;;;0.30;0.30;;;;;;;11.43;56.87;100581.03;5106413;28;20160;-64
2023/05/17 09:32:59;;;;;;;0.30;0.30;;;;;;;11.90;57.33;100583.16;5107094;28;20044;-63
2023/05/17 09:35:31;;;;;;;0.30;0.30;;;;;;;12.52;55.99;100569.38;5107080;28;20100;-63
2023/05/17 09:38:06;;;;;;;0.30;0.30;;;;;;;13.00;54.42;100572.19;5107235;28;20028;-63
2023/05/17 09:40:32;;;;;;;0.30;0.30;;;;;;;13.46;53.70;100585.31;5107170;28;20083;-63
2023/05/17 09:42:58;;;;;;;0.30;0.30;;;;;;;14.03;52.88;100582.56;5107109;28;20050;-63
2023/05/17 09:45:24;;;;;;;0.32;0.32;;;;;;;14.69;48.24;100575.06;5106964;28;20044;-64
2023/05/17 09:47:51;;;;;;;0.25;0.25;;;;;;;14.96;47.60;100577.09;5106936;28;20027;-63
2023/05/17 09:50:18;;;;;;;0.30;0.30;;;;;;;15.18;47.23;100584.41;5106705;28;20020;-63
2023/05/17 09:52:44;;;;;;;0.20;0.20;;;;;;;15.30;44.83;100576.28;5107030;28;20490;-63
2023/05/17 09:55:14;;;;;;;0.20;0.20;;;;;;;15.33;45.25;100581.44;5106927;28;20024;-63
2023/05/17 09:57:40;;;;;;;0.20;0.20;;;;;;;15.55;43.30;100570.41;5106797;28;20039;-64
2023/05/17 10:00:10;;;;;;;0.20;0.20;;;;;;;15.43;43.85;100586.41;5106748;28;20016;-63
2023/05/17 10:02:37;;;;;;;0.30;0.30;;;;;;;15.24;43.88;100597.31;5106901;28;20119;-63
2023/05/17 10:05:10;;;;;;;0.30;0.30;;;;;;;14.92;42.86;100597.22;5146433;22;20055;-63
2023/05/17 10:07:37;;;;;;;0.30;0.30;;;;;;;14.65;42.95;100598.69;5127168;28;20039;-63
2023/05/17 10:10:04;;;;;;;0.30;0.30;;;;;;;14.23;40.49;100584.78;5126814;28;20386;-64
2023/05/17 10:12:32;;;;;;;0.20;0.20;;;;;;;14.24;41.35;100607.38;5126779;28;20466;-63
2023/05/17 10:14:59;;;;;;;0.20;0.20;;;;;;;14.49;41.22;100615.56;5126852;28;20028;-64
2023/05/17 10:17:26;;;;;;;0.20;0.20;;;;;;;14.83;39.70;100610.50;5126298;28;20027;-64
2023/05/17 10:19:53;;;;;;;0.30;0.30;;;;;;;15.16;40.88;100615.00;5126646;28;20019;-63
2023/05/17 10:22:20;;;;;;;0.20;0.20;;;;;;;15.61;40.44;100612.09;5126644;28;20164;-64
2023/05/17 10:24:47;;;;;;;0.20;0.20;;;;;;;15.81;37.00;100607.22;5126651;28;20147;-63
2023/05/17 10:27:14;;;;;;;0.20;0.20;;;;;;;15.77;37.07;100603.84;5126401;28;20020;-63
2023/05/17 10:29:40;;;;;;;0.20;0.20;;;;;;;15.51;37.28;100621.06;5108278;28;20050;-64
2023/05/17 10:32:06;;;;;;;0.20;0.20;;;;;;;15.67;36.37;100616.28;5126689;28;20032;-63
2023/05/17 10:34:37;;;;;;;0.30;0.30;;;;;;;16.44;37.07;100632.56;5126209;28;20076;-63
2023/05/17 10:37:03;;;;;;;0.20;0.20;;;;;;;17.39;36.39;100623.56;5126633;28;20046;-63
2023/05/17 10:39:33;;;;;;;0.20;0.20;;;;;;;18.41;34.29;100626.13;5126451;28;20019;-62
2023/05/17 10:42:01;;;;;;;0.20;0.20;;;;;;;19.11;32.57;100619.94;5126052;28;20050;-63
2023/05/17 10:44:29;;;;;;;0.20;0.20;;;;;;;19.45;31.42;100629.06;5126313;28;20028;-64
2023/05/17 10:46:56;;;;;;;0.20;0.20;;;;;;;19.50;31.62;100632.38;5133060;22;20081;-64
2023/05/17 10:49:28;;;;;;;0.20;0.20;;;;;;;19.07;31.23;100629.72;5131172;22;20501;-68
2023/05/17 10:51:53;;;;;;;;;;;;;;;19.04;30.12;100641.22;5144569;22;20066;-63
2023/05/17 10:54:18;;;;;;;0.20;0.20;;;;;;;18.57;30.23;100637.78;5114482;22;20319;-66
2023/05/17 10:56:50;;;;;;;0.20;0.20;;;;;;;18.38;31.27;100644.66;5106763;23;20063;-67
2023/05/17 10:59:25;;;;;;;;;;;;;;;18.28;30.13;100652.88;5128316;22;20096;-62
2023/05/17 11:01:57;;;;;;;0.20;0.20;;;;;;;18.20;30.85;100655.78;5097298;22;20383;-63
2023/05/17 11:04:24;;;;;;;0.22;0.22;;;;;;;18.05;29.23;100664.19;5085526;28;20059;-63
2023/05/17 11:07:13;;;;;;;0.20;0.20;;;;;;;17.54;29.61;100665.03;5083622;28;20024;-63
2023/05/17 11:09:39;;;;;;;0.20;0.20;;;;;;;16.97;31.12;100670.31;5074473;28;20064;-63
2023/05/17 11:12:09;;;;;;;0.20;0.20;;;;;;;16.74;31.82;100682.38;5085373;28;20032;-63
2023/05/17 11:14:44;;;;;;;0.20;0.20;;;;;;;16.38;31.71;100693.88;5133424;22;20066;-63
2023/05/17 11:17:20;;;;;;;0.22;0.22;;;;;;;15.93;31.54;100692.41;5125863;28;20098;-63
2023/05/17 11:20:25;;;;;;;0.20;0.20;;;;;;;15.63;30.97;100671.38;5125584;28;20023;-64
2023/05/17 11:23:05;;;;;;;0.20;0.20;;;;;;;15.16;32.28;100690.81;5093174;28;20035;-63
2023/05/17 11:25:36;;;;;;;0.28;0.28;;;;;;;15.16;33.22;100698.66;5125872;28;20024;-64
2023/05/17 11:28:19;;;;;;;0.30;0.30;;;;;;;15.30;33.79;100699.22;5125815;28;20023;-64
2023/05/17 11:30:52;;;;;;;0.30;0.30;;;;;;;15.20;31.91;100698.56;5125647;28;20023;-62
2023/05/17 11:33:20;;;;;;;0.20;0.20;;;;;;;15.05;33.11;100728.53;5136290;22;20109;-64
2023/05/17 11:35:46;;;;;;;0.20;0.20;;;;;;;14.80;33.38;100721.22;5136535;22;20104;-63
2023/05/17 11:38:14;;;;;;;0.30;0.30;;;;;;;14.71;33.19;100711.75;5125529;28;20111;-64